Time;durP1;ratioP1;P1;durP2;ratioP2;P2;SDS_P1;SDS_P2;PMS_P1;PMS_P2;Temp;Humidity;BMP_temperature;BMP_pressure;BME280_temperature;BME280_humidity;BME280_pressure;Samples;Min_cycle;Max_cycle;Signal;HPM_P1;HPM_P2
2023/07/02 00:01:01;;;;;;;11.68;5.38;;;;;;;;;;4991488;28;20038;-69
2023/07/02 00:03:27;;;;;;;7.55;5.38;;;;;;;;;;4990901;28;20117;-69
2023/07/02 00:05:54;;;;;;;10.07;5.68;;;;;;;;;;4991422;28;20113;-69
2023/07/02 00:08:23;;;;;;;12.25;5.93;;;;;;;;;;4989743;28;20026;-69
2023/07/02 00:10:49;;;;;;;12.68;5.80;;;;;;;;;;4991308;28;20493;-69
2023/07/02 00:13:15;;;;;;;5.75;4.75;;;;;;;;;;4990813;28;20034;-69
2023/07/02 00:15:41;;;;;;;8.82;5.63;;;;;;;;;;4991166;28;20038;-69
2023/07/02 00:18:07;;;;;;;7.57;5.07;;;;;;;;;;4991017;28;20018;-69
2023/07/02 00:20:37;;;;;;;10.57;5.10;;;;;;;;;;4991083;28;20518;-69
2023/07/02 00:23:08;;;;;;;8.98;5.53;;;;;;;;;;4990524;28;20037;-69
2023/07/02 00:25:34;;;;;;;10.07;5.32;;;;;;;;;;4991646;28;20039;-69
2023/07/02 00:28:00;;;;;;;7.97;5.28;;;;;;;;;;4994936;28;20030;-69
2023/07/02 00:30:26;;;;;;;7.80;5.43;;;;;;;;;;4993566;28;20034;-69
2023/07/02 00:32:51;;;;;;;10.48;5.38;;;;;;;;;;4994898;28;20403;-69
2023/07/02 00:35:17;;;;;;;8.65;4.82;;;;;;;;;;4994424;28;20050;-69
2023/07/02 00:37:43;;;;;;;9.38;4.93;;;;;;;;;;4993432;28;20018;-69
2023/07/02 00:40:09;;;;;;;8.63;5.22;;;;;;;;;;4978037;28;20042;-69
2023/07/02 00:42:35;;;;;;;6.78;4.82;;;;;;;;;;4993317;28;20026;-69
2023/07/02 00:45:04;;;;;;;6.80;4.78;;;;;;;;;;4994178;28;20100;-69
2023/07/02 00:47:33;;;;;;;8.00;4.90;;;;;;;;;;4976843;28;20041;-69
2023/07/02 00:50:00;;;;;;;6.25;5.03;;;;;;;;;;4994243;28;20046;-69
2023/07/02 00:52:26;;;;;;;7.88;5.07;;;;;;;;;;4994129;28;20029;-70
2023/07/02 00:54:52;;;;;;;6.93;4.85;;;;;;;;;;4975955;28;20046;-69
2023/07/02 00:57:18;;;;;;;8.13;5.25;;;;;;;;;;4993954;28;20097;-70
2023/07/02 00:59:44;;;;;;;6.22;5.00;;;;;;;;;;4991644;28;20411;-69
2023/07/02 01:02:10;;;;;;;7.30;4.30;;;;;;;;;;4994802;28;20034;-69
2023/07/02 01:04:37;;;;;;;7.18;4.25;;;;;;;;;;4988726;28;20335;-69
2023/07/02 01:07:08;;;;;;;8.80;4.63;;;;;;;;;;4993407;28;20038;-69
2023/07/02 01:09:34;;;;;;;7.38;4.72;;;;;;;;;;4992432;28;20037;-70
2023/07/02 01:12:03;;;;;;;8.43;4.75;;;;;;;;;;4993741;28;20030;-69
2023/07/02 01:14:33;;;;;;;7.63;4.55;;;;;;;;;;4975559;28;20484;-69
2023/07/02 01:17:01;;;;;;;7.75;4.32;;;;;;;;;;4992261;28;20036;-69
2023/07/02 01:19:41;;;;;;;5.10;4.45;;;;;;;;;;4991778;28;20030;-69
2023/07/02 01:22:08;;;;;;;4.80;3.75;;;;;;;;;;4992284;28;20136;-69
2023/07/02 01:24:35;;;;;;;10.35;4.68;;;;;;;;;;4984074;28;20049;-69
2023/07/02 01:27:02;;;;;;;5.57;4.07;;;;;;;;;;4976019;28;20403;-70
2023/07/02 01:29:30;;;;;;;6.82;3.95;;;;;;;;;;4992385;28;20026;-70
2023/07/02 01:31:56;;;;;;;5.47;3.85;;;;;;;;;;4991732;28;20046;-69
2023/07/02 01:34:22;;;;;;;10.27;4.00;;;;;;;;;;4991399;28;20102;-69
2023/07/02 01:36:48;;;;;;;5.90;4.00;;;;;;;;;;4991836;28;20062;-69
2023/07/02 01:39:13;;;;;;;5.38;3.90;;;;;;;;;;4990979;28;20026;-69
2023/07/02 01:41:51;;;;;;;6.30;3.40;;;;;;;;;;4991927;28;20038;-69
2023/07/02 01:44:17;;;;;;;3.92;3.30;;;;;;;;;;4991198;28;20026;-69
2023/07/02 01:46:44;;;;;;;6.13;3.50;;;;;;;;;;4991689;28;20066;-69
2023/07/02 01:49:11;;;;;;;4.43;3.40;;;;;;;;;;4993337;28;20487;-69
2023/07/02 01:51:38;;;;;;;6.90;3.50;;;;;;;;;;4994812;28;20023;-69
2023/07/02 01:54:04;;;;;;;5.75;3.38;;;;;;;;;;4994239;28;20483;-69
2023/07/02 01:56:29;;;;;;;4.50;3.50;;;;;;;;;;4993413;28;20033;-69
2023/07/02 01:58:55;;;;;;;4.15;3.15;;;;;;;;;;4993070;28;20034;-69
2023/07/02 02:01:21;;;;;;;4.78;3.30;;;;;;;;;;4993278;28;20031;-71
2023/07/02 02:03:46;;;;;;;6.57;3.40;;;;;;;;;;4992995;28;20121;-70
2023/07/02 02:06:12;;;;;;;5.82;3.35;;;;;;;;;;4977041;28;20396;-69
2023/07/02 02:08:38;;;;;;;4.43;3.50;;;;;;;;;;4994344;28;20035;-69
2023/07/02 02:11:04;;;;;;;4.20;3.45;;;;;;;;;;4994222;28;20029;-69
2023/07/02 02:13:30;;;;;;;3.97;3.00;;;;;;;;;;5008767;28;20034;-69
2023/07/02 02:15:55;;;;;;;4.53;3.67;;;;;;;;;;5012147;28;20029;-69
2023/07/02 02:18:21;;;;;;;6.82;3.20;;;;;;;;;;5010971;28;20395;-69
2023/07/02 02:20:47;;;;;;;5.28;3.85;;;;;;;;;;4994686;28;20033;-69
2023/07/02 02:23:13;;;;;;;4.68;3.47;;;;;;;;;;5011998;28;20037;-69
2023/07/02 02:25:38;;;;;;;3.67;2.95;;;;;;;;;;5010784;28;20029;-70
2023/07/02 02:28:04;;;;;;;6.60;3.20;;;;;;;;;;5011875;28;20125;-69
2023/07/02 02:30:30;;;;;;;5.53;3.45;;;;;;;;;;4994765;28;20025;-69
2023/07/02 02:32:56;;;;;;;6.57;3.75;;;;;;;;;;4999309;28;20053;-69
2023/07/02 02:35:22;;;;;;;6.18;3.78;;;;;;;;;;4976465;28;20104;-69
2023/07/02 02:37:49;;;;;;;5.60;3.63;;;;;;;;;;4994563;28;20034;-69
2023/07/02 02:40:15;;;;;;;5.43;3.70;;;;;;;;;;4993617;28;20033;-69
2023/07/02 02:42:41;;;;;;;7.07;3.42;;;;;;;;;;4993640;28;20038;-69
2023/07/02 02:45:07;;;;;;;7.07;3.90;;;;;;;;;;4999812;28;20443;-70
2023/07/02 02:47:34;;;;;;;7.25;4.10;;;;;;;;;;4992454;28;20081;-70
2023/07/02 02:50:00;;;;;;;5.65;3.72;;;;;;;;;;4975228;28;20483;-69
2023/07/02 02:52:25;;;;;;;9.18;4.45;;;;;;;;;;4993635;28;20034;-71
2023/07/02 02:54:54;;;;;;;6.53;4.82;;;;;;;;;;4992060;28;20027;-70
2023/07/02 02:57:19;;;;;;;9.32;5.38;;;;;;;;;;4992133;28;20050;-69
2023/07/02 02:59:46;;;;;;;9.23;6.00;;;;;;;;;;4976097;28;20027;-70
2023/07/02 03:02:11;;;;;;;8.32;5.63;;;;;;;;;;4992200;28;20034;-70
2023/07/02 03:04:41;;;;;;;7.32;5.10;;;;;;;;;;4993255;28;20076;-70
2023/07/02 03:07:09;;;;;;;6.72;4.93;;;;;;;;;;4992119;28;20030;-70
2023/07/02 03:09:35;;;;;;;6.00;4.68;;;;;;;;;;4997569;28;20030;-70
2023/07/02 03:12:01;;;;;;;6.85;4.57;;;;;;;;;;4984322;28;20121;-70
2023/07/02 03:14:27;;;;;;;6.15;4.63;;;;;;;;;;4992255;28;20033;-69
2023/07/02 03:16:52;;;;;;;6.70;5.50;;;;;;;;;;4993880;28;20038;-69
2023/07/02 03:19:18;;;;;;;6.93;5.03;;;;;;;;;;4993494;28;20026;-69
2023/07/02 03:21:44;;;;;;;9.60;5.18;;;;;;;;;;4993276;28;20054;-70
2023/07/02 03:24:13;;;;;;;7.15;5.30;;;;;;;;;;4992966;28;20381;-69
2023/07/02 03:26:42;;;;;;;11.40;5.40;;;;;;;;;;4992775;28;20030;-68
2023/07/02 03:29:08;;;;;;;10.32;5.85;;;;;;;;;;4992919;28;20032;-68
2023/07/02 03:31:34;;;;;;;11.20;6.05;;;;;;;;;;4993011;28;20064;-68
2023/07/02 03:34:04;;;;;;;9.15;6.00;;;;;;;;;;4992732;28;20477;-69
2023/07/02 03:36:30;;;;;;;10.15;6.35;;;;;;;;;;4992870;28;20034;-70
2023/07/02 03:38:55;;;;;;;12.73;6.32;;;;;;;;;;4992728;28;20031;-70
2023/07/02 03:41:21;;;;;;;7.13;5.30;;;;;;;;;;4992956;28;20089;-69
2023/07/02 03:43:47;;;;;;;10.55;6.05;;;;;;;;;;4992508;28;20053;-69
2023/07/02 03:46:13;;;;;;;14.45;8.25;;;;;;;;;;4992737;28;20034;-70
2023/07/02 03:48:39;;;;;;;7.28;5.68;;;;;;;;;;4992665;28;20030;-70
2023/07/02 03:51:05;;;;;;;8.65;5.25;;;;;;;;;;4992687;28;20053;-69
2023/07/02 03:53:31;;;;;;;8.55;5.72;;;;;;;;;;4992462;28;20088;-70
2023/07/02 03:55:57;;;;;;;11.20;6.18;;;;;;;;;;4992583;28;20038;-70
2023/07/02 03:58:22;;;;;;;8.57;6.18;;;;;;;;;;4992517;28;20101;-70
2023/07/02 04:00:51;;;;;;;7.78;5.95;;;;;;;;;;4992271;28;20034;-70
2023/07/02 04:03:17;;;;;;;12.25;7.32;;;;;;;;;;4992486;28;20515;-69
2023/07/02 04:05:43;;;;;;;10.32;6.85;;;;;;;;;;4992544;28;20030;-69
2023/07/02 04:08:09;;;;;;;10.38;6.90;;;;;;;;;;4992216;28;20023;-69
2023/07/02 04:10:37;;;;;;;11.02;6.95;;;;;;;;;;4992457;28;20095;-69
2023/07/02 04:13:02;;;;;;;21.35;7.05;;;;;;;;;;4992045;28;20037;-69
2023/07/02 04:15:28;;;;;;;9.63;6.88;;;;;;;;;;4992524;28;20030;-70
2023/07/02 04:17:54;;;;;;;9.32;6.50;;;;;;;;;;4992357;28;20050;-68
2023/07/02 04:20:20;;;;;;;10.00;6.35;;;;;;;;;;4992549;28;20121;-70
2023/07/02 04:22:46;;;;;;;8.20;5.80;;;;;;;;;;4992328;28;20030;-68
2023/07/02 04:25:16;;;;;;;8.80;5.50;;;;;;;;;;4992323;28;20044;-69
2023/07/02 04:27:43;;;;;;;7.85;5.38;;;;;;;;;;4992241;28;20050;-69
2023/07/02 04:30:10;;;;;;;9.70;6.18;;;;;;;;;;4992316;28;20034;-69
2023/07/02 04:32:39;;;;;;;11.27;6.25;;;;;;;;;;4992319;28;20040;-69
2023/07/02 04:35:08;;;;;;;9.70;5.43;;;;;;;;;;4992024;28;20031;-69
2023/07/02 04:37:35;;;;;;;8.60;5.32;;;;;;;;;;4992320;28;20018;-69
2023/07/02 04:40:01;;;;;;;10.68;5.50;;;;;;;;;;4992207;28;20061;-69
2023/07/02 04:42:27;;;;;;;10.23;5.63;;;;;;;;;;4992256;28;20022;-69
2023/07/02 04:44:54;;;;;;;8.13;5.20;;;;;;;;;;4992696;28;20034;-69
2023/07/02 04:47:20;;;;;;;8.88;5.10;;;;;;;;;;4992633;28;20018;-69
2023/07/02 04:49:46;;;;;;;9.40;4.45;;;;;;;;;;4992491;28;20065;-69
2023/07/02 04:52:11;;;;;;;11.68;5.38;;;;;;;;;;4992701;28;20026;-69
2023/07/02 04:54:37;;;;;;;9.80;5.75;;;;;;;;;;4992403;28;20034;-70
2023/07/02 04:57:03;;;;;;;11.98;5.90;;;;;;;;;;4992216;28;20018;-69
2023/07/02 04:59:29;;;;;;;8.18;5.72;;;;;;;;;;4992321;28;20037;-69
2023/07/02 05:01:55;;;;;;;12.02;5.07;;;;;;;;;;4992272;28;20030;-68
2023/07/02 05:04:21;;;;;;;12.32;5.22;;;;;;;;;;4992087;28;20467;-69
2023/07/02 05:06:46;;;;;;;8.55;4.85;;;;;;;;;;4992213;28;20113;-69
2023/07/02 05:09:12;;;;;;;7.90;4.45;;;;;;;;;;4992275;28;20026;-69
2023/07/02 05:11:38;;;;;;;7.60;4.68;;;;;;;;;;4993522;28;20022;-68
2023/07/02 05:14:03;;;;;;;6.32;4.30;;;;;;;;;;4997026;28;20034;-69
2023/07/02 05:16:30;;;;;;;6.18;4.53;;;;;;;;;;4996410;28;20026;-69
2023/07/02 05:18:56;;;;;;;8.35;4.97;;;;;;;;;;4995411;28;20030;-69
2023/07/02 05:21:22;;;;;;;9.00;4.72;;;;;;;;;;4995607;28;20032;-69
2023/07/02 05:23:48;;;;;;;7.05;4.68;;;;;;;;;;4995714;28;20065;-68
2023/07/02 05:26:14;;;;;;;9.55;4.80;;;;;;;;;;4995806;28;20150;-68
2023/07/02 05:28:40;;;;;;;9.93;4.90;;;;;;;;;;4995437;28;20155;-68
2023/07/02 05:31:05;;;;;;;8.52;4.25;;;;;;;;;;4995528;28;20036;-69
2023/07/02 05:33:33;;;;;;;7.35;4.18;;;;;;;;;;4995255;28;20049;-69
2023/07/02 05:35:58;;;;;;;6.22;4.10;;;;;;;;;;4995367;28;20026;-69
2023/07/02 05:38:24;;;;;;;6.35;4.20;;;;;;;;;;4995400;28;20030;-69
2023/07/02 05:40:50;;;;;;;9.20;4.57;;;;;;;;;;4995484;28;20089;-69
2023/07/02 05:43:16;;;;;;;8.38;5.30;;;;;;;;;;4995138;28;20034;-69
2023/07/02 05:45:42;;;;;;;8.27;4.65;;;;;;;;;;4995537;28;20032;-69
2023/07/02 05:48:08;;;;;;;8.15;5.22;;;;;;;;;;4977381;28;20039;-68
2023/07/02 05:50:33;;;;;;;8.27;4.68;;;;;;;;;;4995033;28;20041;-69
2023/07/02 05:52:59;;;;;;;6.07;4.40;;;;;;;;;;4995165;28;20046;-69
2023/07/02 05:55:25;;;;;;;5.57;3.88;;;;;;;;;;4994817;28;20076;-68
2023/07/02 05:57:50;;;;;;;6.40;4.43;;;;;;;;;;4993902;28;20027;-70
2023/07/02 06:00:16;;;;;;;6.50;4.10;;;;;;;;;;4994771;28;20375;-69
2023/07/02 06:02:42;;;;;;;5.07;3.80;;;;;;;;;;4994800;28;20045;-68
2023/07/02 06:05:08;;;;;;;6.15;3.90;;;;;;;;;;4994689;28;20034;-68
2023/07/02 06:07:34;;;;;;;7.05;4.00;;;;;;;;;;4994750;28;20041;-69
2023/07/02 06:09:59;;;;;;;5.70;4.07;;;;;;;;;;4994729;28;20040;-69
2023/07/02 06:12:25;;;;;;;5.53;4.30;;;;;;;;;;4994436;28;20034;-69
2023/07/02 06:14:51;;;;;;;5.63;4.07;;;;;;;;;;4994520;28;20028;-69
2023/07/02 06:17:16;;;;;;;7.63;4.20;;;;;;;;;;4994441;28;20038;-68
2023/07/02 06:19:42;;;;;;;5.93;4.38;;;;;;;;;;4994545;28;20032;-68
2023/07/02 06:22:08;;;;;;;7.10;4.30;;;;;;;;;;4977044;28;20073;-69
2023/07/02 06:24:33;;;;;;;5.30;4.28;;;;;;;;;;4994040;28;20030;-68
2023/07/02 06:26:59;;;;;;;6.45;4.28;;;;;;;;;;4994507;28;20448;-68
2023/07/02 06:29:25;;;;;;;10.88;4.72;;;;;;;;;;4994245;28;20026;-69
2023/07/02 06:31:51;;;;;;;6.50;4.07;;;;;;;;;;4994126;28;20110;-69
2023/07/02 06:34:16;;;;;;;6.53;4.03;;;;;;;;;;4993953;28;20476;-69
2023/07/02 06:36:43;;;;;;;6.47;4.65;;;;;;;;;;4994020;28;20057;-69
2023/07/02 06:39:11;;;;;;;7.88;4.65;;;;;;;;;;4994031;28;20611;-70
2023/07/02 06:41:37;;;;;;;6.38;4.07;;;;;;;;;;4993826;28;20030;-69
2023/07/02 06:44:04;;;;;;;7.85;4.72;;;;;;;;;;4993760;28;20029;-69
2023/07/02 06:46:30;;;;;;;9.25;4.20;;;;;;;;;;4993694;28;20133;-69
2023/07/02 06:48:56;;;;;;;6.68;4.50;;;;;;;;;;4993687;28;20022;-68
2023/07/02 06:51:22;;;;;;;6.95;4.50;;;;;;;;;;4993913;28;20026;-68
2023/07/02 06:53:48;;;;;;;6.88;4.57;;;;;;;;;;4993427;28;20376;-68
2023/07/02 06:56:14;;;;;;;10.02;4.68;;;;;;;;;;4993788;28;20113;-69
2023/07/02 06:58:42;;;;;;;9.93;4.10;;;;;;;;;;4993654;28;20133;-68
2023/07/02 07:01:08;;;;;;;6.18;4.53;;;;;;;;;;4993448;28;20046;-68
2023/07/02 07:03:35;;;;;;;6.15;4.65;;;;;;;;;;4993600;28;20040;-68
2023/07/02 07:06:01;;;;;;;7.00;4.65;;;;;;;;;;4993327;28;20032;-69
2023/07/02 07:08:27;;;;;;;6.40;4.50;;;;;;;;;;4993182;28;20479;-68
2023/07/02 07:10:52;;;;;;;6.97;4.68;;;;;;;;;;4993462;28;20037;-69
2023/07/02 07:13:18;;;;;;;8.23;4.30;;;;;;;;;;4993075;28;20030;-69
2023/07/02 07:15:44;;;;;;;8.30;4.43;;;;;;;;;;4993110;28;20038;-69
2023/07/02 07:18:10;;;;;;;6.40;4.20;;;;;;;;;;4993510;28;20018;-69
2023/07/02 07:20:36;;;;;;;7.13;4.38;;;;;;;;;;4993272;28;20038;-71
2023/07/02 07:23:03;;;;;;;6.10;4.53;;;;;;;;;;4992952;28;20033;-70
2023/07/02 07:25:29;;;;;;;10.02;4.88;;;;;;;;;;4993253;28;20026;-70
2023/07/02 07:27:55;;;;;;;5.55;4.10;;;;;;;;;;4993171;28;20034;-70
2023/07/02 07:30:23;;;;;;;6.82;4.47;;;;;;;;;;4992676;28;20045;-69
2023/07/02 07:32:50;;;;;;;7.68;4.50;;;;;;;;;;4992899;28;20392;-69
2023/07/02 07:35:17;;;;;;;6.80;4.57;;;;;;;;;;4992289;28;20038;-70
2023/07/02 07:37:43;;;;;;;9.77;5.25;;;;;;;;;;4992821;28;20026;-70
2023/07/02 07:40:09;;;;;;;12.23;5.15;;;;;;;;;;4992779;28;20113;-70
2023/07/02 07:42:34;;;;;;;9.60;5.00;;;;;;;;;;4992692;28;20072;-69
2023/07/02 07:45:00;;;;;;;8.90;4.68;;;;;;;;;;4992859;28;20504;-69
2023/07/02 07:47:26;;;;;;;8.80;4.95;;;;;;;;;;4992601;28;20357;-69
2023/07/02 07:49:52;;;;;;;6.65;5.00;;;;;;;;;;4975609;28;20038;-69
2023/07/02 07:52:17;;;;;;;6.38;4.78;;;;;;;;;;4992739;28;20182;-69
2023/07/02 07:54:43;;;;;;;10.05;4.88;;;;;;;;;;4992613;28;20035;-69
2023/07/02 07:57:09;;;;;;;8.68;5.25;;;;;;;;;;4992531;28;20018;-69
2023/07/02 07:59:34;;;;;;;10.07;4.90;;;;;;;;;;4992596;28;20045;-69
2023/07/02 08:02:00;;;;;;;7.47;4.82;;;;;;;;;;4992747;28;20026;-70
2023/07/02 08:04:26;;;;;;;9.38;5.15;;;;;;;;;;4991153;28;20663;-70
2023/07/02 08:06:51;;;;;;;10.18;5.30;;;;;;;;;;4992409;28;20023;-69
2023/07/02 08:09:17;;;;;;;9.88;5.68;;;;;;;;;;4992720;28;20027;-70
2023/07/02 08:11:43;;;;;;;8.38;4.78;;;;;;;;;;4992475;28;20392;-69
2023/07/02 08:14:09;;;;;;;8.13;5.35;;;;;;;;;;4992275;28;20104;-69
2023/07/02 08:16:34;;;;;;;15.80;5.07;;;;;;;;;;4992377;28;20026;-69
2023/07/02 08:19:01;;;;;;;8.02;5.53;;;;;;;;;;4992404;28;20030;-69
2023/07/02 08:21:27;;;;;;;9.35;5.47;;;;;;;;;;4975156;28;20031;-69
2023/07/02 08:23:53;;;;;;;7.53;5.78;;;;;;;;;;4992106;28;20061;-69
2023/07/02 08:26:18;;;;;;;9.73;5.93;;;;;;;;;;4992305;28;20093;-69
2023/07/02 08:28:44;;;;;;;10.73;6.40;;;;;;;;;;4992178;28;20500;-69
2023/07/02 08:31:10;;;;;;;10.77;6.03;;;;;;;;;;4992285;28;20125;-69
2023/07/02 08:33:35;;;;;;;7.47;5.35;;;;;;;;;;4992083;28;20133;-69
2023/07/02 08:36:01;;;;;;;9.73;6.05;;;;;;;;;;4992359;28;20069;-69
2023/07/02 08:38:27;;;;;;;9.35;6.97;;;;;;;;;;4992302;28;20063;-69
2023/07/02 08:40:52;;;;;;;8.43;6.53;;;;;;;;;;4992209;28;20027;-69
2023/07/02 08:43:18;;;;;;;10.35;7.88;;;;;;;;;;4992130;28;20129;-70
2023/07/02 08:45:44;;;;;;;10.57;7.00;;;;;;;;;;4992297;28;20424;-70
2023/07/02 08:48:11;;;;;;;9.20;7.22;;;;;;;;;;4995034;28;20038;-69
2023/07/02 08:50:37;;;;;;;9.40;7.10;;;;;;;;;;4995855;28;20034;-69
2023/07/02 08:53:02;;;;;;;10.68;6.57;;;;;;;;;;4995857;28;20034;-69
2023/07/02 08:55:29;;;;;;;9.13;6.38;;;;;;;;;;4995741;28;20092;-69
2023/07/02 08:57:59;;;;;;;9.32;6.50;;;;;;;;;;4996046;28;20045;-69
2023/07/02 09:00:25;;;;;;;10.13;6.50;;;;;;;;;;4995735;28;20081;-69
2023/07/02 09:02:51;;;;;;;9.27;6.40;;;;;;;;;;4995680;28;20037;-68
2023/07/02 09:05:17;;;;;;;9.88;6.60;;;;;;;;;;4995471;28;20034;-69
2023/07/02 09:07:45;;;;;;;10.05;6.50;;;;;;;;;;4995502;28;20034;-70
2023/07/02 09:10:11;;;;;;;9.18;7.15;;;;;;;;;;4995592;28;20132;-69
2023/07/02 09:12:38;;;;;;;12.02;6.90;;;;;;;;;;4995553;28;20479;-69
2023/07/02 09:15:08;;;;;;;12.85;7.85;;;;;;;;;;4995239;28;20480;-70
2023/07/02 09:17:36;;;;;;;10.00;6.57;;;;;;;;;;4995692;28;20054;-69
2023/07/02 09:20:07;;;;;;;12.80;7.57;;;;;;;;;;4995490;28;20032;-70
2023/07/02 09:22:32;;;;;;;9.73;7.07;;;;;;;;;;4995292;28;20038;-69
2023/07/02 09:24:59;;;;;;;10.43;7.50;;;;;;;;;;4995503;28;20372;-69
2023/07/02 09:27:36;;;;;;;17.55;7.60;;;;;;;;;;4995240;28;20042;-69
2023/07/02 09:30:13;;;;;;;11.07;7.40;;;;;;;;;;4995446;28;20041;-69
2023/07/02 09:32:40;;;;;;;10.85;7.18;;;;;;;;;;4995281;28;20077;-69
2023/07/02 09:35:06;;;;;;;14.35;7.85;;;;;;;;;;4994844;28;20630;-69
2023/07/02 09:37:32;;;;;;;12.07;7.57;;;;;;;;;;4995140;28;20085;-69
2023/07/02 09:39:58;;;;;;;11.00;7.65;;;;;;;;;;4995033;28;20031;-69
2023/07/02 09:42:25;;;;;;;12.55;8.25;;;;;;;;;;4995010;28;20501;-69
2023/07/02 09:44:58;;;;;;;13.25;8.40;;;;;;;;;;4995095;28;20448;-69
2023/07/02 09:47:26;;;;;;;13.85;8.57;;;;;;;;;;4993743;28;20042;-69
2023/07/02 09:49:53;;;;;;;12.88;7.50;;;;;;;;;;4994703;28;20045;-70
2023/07/02 09:52:19;;;;;;;13.30;8.02;;;;;;;;;;4993560;28;20476;-69
2023/07/02 09:54:45;;;;;;;13.32;7.85;;;;;;;;;;4993586;28;20395;-69
2023/07/02 09:57:11;;;;;;;13.40;8.52;;;;;;;;;;4994834;28;20038;-69
2023/07/02 09:59:38;;;;;;;11.65;8.85;;;;;;;;;;4994007;28;20034;-69
2023/07/02 10:02:05;;;;;;;14.65;9.52;;;;;;;;;;4994658;28;20092;-69
2023/07/02 10:04:44;;;;;;;14.88;9.93;;;;;;;;;;4993311;28;20109;-69
2023/07/02 10:07:11;;;;;;;14.05;9.43;;;;;;;;;;4994547;28;20495;-69
2023/07/02 10:09:39;;;;;;;12.55;9.15;;;;;;;;;;4994693;28;20113;-69
2023/07/02 10:12:21;;;;;;;13.32;9.15;;;;;;;;;;4994643;28;20078;-69
2023/07/02 10:14:48;;;;;;;14.90;8.95;;;;;;;;;;4994767;28;20042;-68
2023/07/02 10:17:28;;;;;;;13.00;8.70;;;;;;;;;;4994806;28;20148;-69
2023/07/02 10:19:56;;;;;;;14.75;9.65;;;;;;;;;;4994733;28;20042;-69
2023/07/02 10:22:23;;;;;;;12.65;8.50;;;;;;;;;;4994613;28;20546;-69
2023/07/02 10:24:53;;;;;;;13.25;7.93;;;;;;;;;;4994298;28;20404;-68
2023/07/02 10:27:18;;;;;;;10.05;8.07;;;;;;;;;;4994009;28;20039;-69
2023/07/02 10:29:50;;;;;;;10.98;7.55;;;;;;;;;;4994635;28;20472;-69
2023/07/02 10:32:29;;;;;;;13.07;8.00;;;;;;;;;;4994808;28;20042;-69
2023/07/02 10:34:55;;;;;;;11.20;8.20;;;;;;;;;;4994150;28;20053;-69
2023/07/02 10:37:21;;;;;;;15.82;8.93;;;;;;;;;;4993993;28;20027;-70
2023/07/02 10:39:47;;;;;;;11.82;8.48;;;;;;;;;;4993910;28;20038;-70
2023/07/02 10:42:12;;;;;;;12.98;8.05;;;;;;;;;;4994375;28;20034;-69
2023/07/02 10:44:52;;;;;;;12.88;9.30;;;;;;;;;;4994206;28;20077;-70
2023/07/02 10:47:19;;;;;;;14.05;8.88;;;;;;;;;;4994331;28;20125;-69
2023/07/02 10:49:45;;;;;;;12.40;8.35;;;;;;;;;;4994114;28;20109;-68
2023/07/02 10:52:10;;;;;;;11.85;7.30;;;;;;;;;;4992532;28;20058;-69
2023/07/02 10:54:44;;;;;;;11.43;8.30;;;;;;;;;;4995200;28;20100;-69
2023/07/02 10:57:12;;;;;;;16.45;7.85;;;;;;;;;;4993963;28;20030;-69
2023/07/02 10:59:38;;;;;;;11.88;8.05;;;;;;;;;;4993985;28;20048;-69
2023/07/02 11:02:06;;;;;;;14.60;8.13;;;;;;;;;;4994552;28;20101;-68
2023/07/02 11:04:33;;;;;;;12.98;9.10;;;;;;;;;;4993746;28;20022;-69
2023/07/02 11:07:00;;;;;;;15.13;8.05;;;;;;;;;;4992786;28;20411;-69
2023/07/02 11:09:26;;;;;;;13.93;7.95;;;;;;;;;;4994007;28;20114;-69
2023/07/02 11:12:00;;;;;;;12.07;7.82;;;;;;;;;;4992230;28;20102;-69
2023/07/02 11:14:29;;;;;;;17.55;8.10;;;;;;;;;;4993110;28;20038;-69
2023/07/02 11:16:56;;;;;;;12.05;7.85;;;;;;;;;;4993419;28;20547;-69
2023/07/02 11:19:22;;;;;;;10.80;7.40;;;;;;;;;;4993402;28;20500;-69
2023/07/02 11:21:56;;;;;;;13.85;8.00;;;;;;;;;;4993599;28;20055;-69
2023/07/02 11:24:33;;;;;;;11.48;8.00;;;;;;;;;;4993930;28;20038;-69
2023/07/02 11:27:00;;;;;;;14.45;8.50;;;;;;;;;;4993981;28;20038;-69
2023/07/02 11:29:29;;;;;;;12.32;8.32;;;;;;;;;;4993747;28;20121;-68
2023/07/02 11:32:05;;;;;;;12.40;7.82;;;;;;;;;;4992202;28;20034;-69
2023/07/02 11:34:30;;;;;;;10.68;7.65;;;;;;;;;;4993382;28;20065;-69
2023/07/02 11:36:56;;;;;;;9.93;7.40;;;;;;;;;;4993661;28;20022;-69
2023/07/02 11:39:22;;;;;;;12.90;7.75;;;;;;;;;;4993455;28;20441;-69
2023/07/02 11:41:48;;;;;;;12.70;8.77;;;;;;;;;;4993317;28;20053;-69
2023/07/02 11:44:15;;;;;;;13.23;9.05;;;;;;;;;;4992029;28;20042;-69
2023/07/02 11:46:41;;;;;;;15.05;10.60;;;;;;;;;;4993360;28;20096;-69
2023/07/02 11:49:09;;;;;;;11.18;8.02;;;;;;;;;;4993325;28;20050;-70
2023/07/02 11:51:40;;;;;;;11.20;7.93;;;;;;;;;;4993346;28;20018;-69
2023/07/02 11:54:06;;;;;;;13.07;8.43;;;;;;;;;;4975504;28;20140;-69
2023/07/02 11:56:32;;;;;;;13.70;8.38;;;;;;;;;;4992918;28;20026;-69
2023/07/02 11:58:59;;;;;;;15.45;9.30;;;;;;;;;;4992968;28;20026;-70
2023/07/02 12:01:25;;;;;;;13.00;8.43;;;;;;;;;;4993588;28;20396;-70
2023/07/02 12:03:50;;;;;;;11.82;8.30;;;;;;;;;;4993101;28;20039;-69
2023/07/02 12:06:16;;;;;;;11.43;8.70;;;;;;;;;;4993395;28;20092;-69
2023/07/02 12:08:42;;;;;;;11.77;8.55;;;;;;;;;;4993180;28;20396;-69
2023/07/02 12:11:08;;;;;;;10.77;7.47;;;;;;;;;;4993140;28;20026;-69
2023/07/02 12:13:33;;;;;;;10.20;7.75;;;;;;;;;;5007610;28;20038;-69
2023/07/02 12:15:59;;;;;;;12.63;8.15;;;;;;;;;;4993409;28;20026;-69
2023/07/02 12:18:25;;;;;;;10.63;8.10;;;;;;;;;;4992880;28;20370;-69
2023/07/02 12:20:51;;;;;;;14.73;7.70;;;;;;;;;;4992707;28;20076;-70
2023/07/02 12:23:16;;;;;;;14.02;8.15;;;;;;;;;;4995845;28;20026;-69
2023/07/02 12:25:42;;;;;;;15.70;7.72;;;;;;;;;;5011827;28;20057;-69
2023/07/02 12:28:08;;;;;;;10.07;7.10;;;;;;;;;;4996435;28;20084;-69
2023/07/02 12:30:33;;;;;;;9.80;7.07;;;;;;;;;;4996863;28;20392;-69
2023/07/02 12:32:59;;;;;;;13.48;7.93;;;;;;;;;;4996561;28;20034;-69
2023/07/02 12:35:25;;;;;;;10.48;6.47;;;;;;;;;;4996277;28;20018;-70
2023/07/02 12:37:52;;;;;;;8.73;5.50;;;;;;;;;;4996182;28;20034;-70
2023/07/02 12:40:20;;;;;;;10.27;6.28;;;;;;;;;;4996144;28;20054;-69
2023/07/02 12:42:47;;;;;;;10.27;5.30;;;;;;;;;;4996022;28;20030;-70
2023/07/02 12:45:14;;;;;;;8.07;6.13;;;;;;;;;;4996115;28;20102;-70
2023/07/02 12:47:41;;;;;;;9.05;6.18;;;;;;;;;;4996105;28;20034;-70
2023/07/02 12:50:07;;;;;;;10.00;6.20;;;;;;;;;;4995527;28;20034;-69
2023/07/02 12:52:33;;;;;;;10.77;6.35;;;;;;;;;;4995744;28;20049;-70
2023/07/02 12:55:00;;;;;;;9.00;6.50;;;;;;;;;;4995594;28;20034;-69
2023/07/02 12:57:28;;;;;;;8.60;5.82;;;;;;;;;;4995804;28;20117;-69
2023/07/02 12:59:55;;;;;;;10.43;6.13;;;;;;;;;;4998160;28;21609;-69
2023/07/02 13:02:24;;;;;;;10.10;6.30;;;;;;;;;;4998561;28;20030;-69
2023/07/02 13:04:50;;;;;;;10.90;6.13;;;;;;;;;;4994978;28;20068;-69
2023/07/02 13:07:16;;;;;;;8.98;5.85;;;;;;;;;;4995465;28;20080;-69
2023/07/02 13:09:42;;;;;;;10.20;6.13;;;;;;;;;;4995395;28;20472;-68
2023/07/02 13:12:08;;;;;;;10.18;5.70;;;;;;;;;;4995437;28;20042;-69
2023/07/02 13:14:34;;;;;;;9.05;5.35;;;;;;;;;;4995451;28;20122;-69
2023/07/02 13:17:00;;;;;;;9.55;6.10;;;;;;;;;;4993442;28;20073;-69
2023/07/02 13:19:26;;;;;;;9.60;5.97;;;;;;;;;;4993703;28;20050;-69
2023/07/02 13:21:52;;;;;;;8.50;5.75;;;;;;;;;;4993768;28;20041;-69
2023/07/02 13:24:17;;;;;;;11.60;6.30;;;;;;;;;;4993194;28;20023;-69
2023/07/02 13:26:43;;;;;;;10.00;5.95;;;;;;;;;;4993840;28;20093;-69
2023/07/02 13:29:09;;;;;;;11.02;6.45;;;;;;;;;;4993385;28;20034;-69
2023/07/02 13:31:35;;;;;;;9.48;6.65;;;;;;;;;;4993526;28;20034;-69
2023/07/02 13:34:00;;;;;;;8.55;6.05;;;;;;;;;;4991878;28;20030;-69
2023/07/02 13:36:28;;;;;;;12.93;6.75;;;;;;;;;;4993484;28;20443;-69
2023/07/02 13:38:54;;;;;;;14.00;6.78;;;;;;;;;;4993687;28;20376;-69
2023/07/02 13:41:20;;;;;;;10.52;6.68;;;;;;;;;;4993709;28;20042;-69
2023/07/02 13:43:46;;;;;;;11.98;7.05;;;;;;;;;;4993241;28;20559;-69
2023/07/02 13:46:13;;;;;;;11.70;6.63;;;;;;;;;;4993648;28;20041;-69
2023/07/02 13:48:38;;;;;;;11.60;6.57;;;;;;;;;;4993316;28;20026;-69
2023/07/02 13:51:05;;;;;;;13.20;6.43;;;;;;;;;;4993370;28;20038;-68
2023/07/02 13:53:30;;;;;;;12.05;6.68;;;;;;;;;;4993008;28;20026;-68
2023/07/02 13:55:56;;;;;;;11.05;6.85;;;;;;;;;;4993306;28;20042;-68
2023/07/02 13:58:22;;;;;;;12.07;6.75;;;;;;;;;;4993599;28;20034;-69
2023/07/02 14:00:48;;;;;;;10.55;6.75;;;;;;;;;;4990542;28;20034;-69
2023/07/02 14:03:14;;;;;;;13.35;6.60;;;;;;;;;;4992760;28;20033;-69
2023/07/02 14:05:40;;;;;;;8.82;6.00;;;;;;;;;;4993218;28;20034;-69
2023/07/02 14:08:06;;;;;;;8.05;6.25;;;;;;;;;;4992802;28;20109;-69
2023/07/02 14:10:32;;;;;;;12.98;7.63;;;;;;;;;;4992990;28;20365;-69
2023/07/02 14:12:57;;;;;;;11.60;6.88;;;;;;;;;;4992761;28;20034;-70
2023/07/02 14:15:25;;;;;;;15.45;7.18;;;;;;;;;;4992629;28;20467;-70
2023/07/02 14:17:50;;;;;;;8.35;6.32;;;;;;;;;;4992883;28;20076;-70
2023/07/02 14:20:19;;;;;;;12.05;7.85;;;;;;;;;;4992573;28;20045;-69
2023/07/02 14:22:45;;;;;;;13.40;7.40;;;;;;;;;;4992660;28;20030;-69
2023/07/02 14:25:11;;;;;;;11.10;7.60;;;;;;;;;;4992491;28;20034;-70
2023/07/02 14:27:37;;;;;;;13.80;8.35;;;;;;;;;;4992737;28;20092;-70
2023/07/02 14:30:07;;;;;;;11.88;7.90;;;;;;;;;;4992616;28;20104;-69
2023/07/02 14:32:35;;;;;;;11.75;7.57;;;;;;;;;;4992649;28;20038;-69
2023/07/02 14:35:02;;;;;;;11.07;7.10;;;;;;;;;;4992247;28;20117;-69